Garden City, KS

07:01 AM CDT on shtator 27, 2016 (GMT -0500)
N0KQX | | Change Station

Elev 2839 ft 37.97 °N, 100.85 °W | Updated 9 seconds ago

Clear
i kthjellet
47.7 °F
Feels Like 48 °F
N
0.0
Era e paqendrueshme Era from JP
Gusts 0.0 mph

Sot
High -- | Low -- °F
--% Chance of Precip.
Yesterday
High -- | Low -- °F
Precip. -- ne
Presioni 30.10 ne
Visioni 10.0 milje
Clouds i kthjellet
Ftohtesia E erses 48 °F
Pika E Veses 39 °F
Lageshtira E ajrit 72%
Rainfall 0.00 ne
Snow Depth Not available.
7:36 AM 7:31 PM
Waning Crescent, 12% visible
METAR KGCK 271154Z AUTO 29004KT 10SM CLR 07/02 A3014 RMK AO2 SLP192 T00670022 10122 20067 56006
Presioni 30.10 ne
Visioni 10.0 milje
Clouds i kthjellet
Ftohtesia E erses 48 °F
Pika E Veses 39 °F
Lageshtira E ajrit 72%
Rainfall 0.00 ne
Snow Depth Not available.
7:36 AM 7:31 PM
Waning Crescent, 12% visible
METAR KGCK 271154Z AUTO 29004KT 10SM CLR 07/02 A3014 RMK AO2 SLP192 T00670022 10122 20067 56006

10-Day Weather Forecast

Almanac

Astronomy

Sep. 27, 2016 Rise Set
Actual Time
Civil Twilight
Nautical Twilight
Astronomical Twilight
Moon
Length Of Visible Light
Length of Day
Tomorrow will be .
, % of the Moon is Illuminated

Today's Extremes

State Highs State Lows

Community

WunderPhotos

Upload Photos

1,942,068 photos uploaded!

WunderBlog® & News

Nearby

Air Quality

  Air Quality AQ Index Pollutant
Not available.

Snow Depth

Station Depth Elevation

Earthquake Activity

City Distance Mag. Time & Date
Minimum magnitude displayed is 2.5.

Coastal Water Temperatures

Vend Temperatura

Stations

Nearby Weather Stations

Station Location Temp Ftohtesia E erses Pika E Veses Lageshtira E ajrit Era Precip. Elev te freskuara(Te Dhenat) Type
                   

Watches & Warnings

There are currently no watches in effect.